Stratton, Maine
Current Conditions -  °F | °C
As of 3:52 PM on Thursday 18 Dec 2014 (Local Time) from KBML Reporting Station
Overcast Overcast  
Wind Chill: 21°   Ceiling: 1800
Heat Index: 30°   Visibility: 10mi
Dew Point: 23°   Wind: 10mph
Humidity: 75%   Direction: 290°WNW
Pressure: 29.73"   Gusts: NA
Location:  45.14°N, 70.44°W
Report Text: KBML 182052Z AUTO 29009KT 10SM OVC018 M01/M05 A2973 RMK AO2 UPB1954E15SNB1955E1956 SLP082 P0000 60000 T10111050 53014
Loading
Personal Weather Stations






























Interactive Weather Map New forecast layout! Learn more

10-Day Weather Forecast

Advertisements
Track Severe Weather on mobile